sensor_id;sensor_type;location;lat;lon;timestamp;temperature;humidity
79489;SHT31;68949;53.176;18.088;2024-02-14T05:39:54;1.24;85.19
79489;SHT31;68949;53.176;18.088;2024-02-14T05:42:21;1.20;85.20
79489;SHT31;68949;53.176;18.088;2024-02-14T05:44:48;1.18;85.21
79489;SHT31;68949;53.176;18.088;2024-02-14T05:47:15;1.16;85.24
79489;SHT31;68949;53.176;18.088;2024-02-14T05:49:43;1.17;85.32
79489;SHT31;68949;53.176;18.088;2024-02-14T05:52:09;1.18;85.39
79489;SHT31;68949;53.176;18.088;2024-02-14T05:54:36;1.21;85.33
79489;SHT31;68949;53.176;18.088;2024-02-14T05:57:03;1.23;85.29
79489;SHT31;68949;53.176;18.088;2024-02-14T05:59:30;1.26;85.20
79489;SHT31;68949;53.176;18.088;2024-02-14T06:01:58;1.25;85.10
79489;SHT31;68949;53.176;18.088;2024-02-14T06:04:25;1.23;85.05
79489;SHT31;68949;53.176;18.088;2024-02-14T06:06:52;1.20;85.11
79489;SHT31;68949;53.176;18.088;2024-02-14T06:09:18;1.16;85.00
79489;SHT31;68949;53.176;18.088;2024-02-14T06:11:45;1.07;85.07
79489;SHT31;68949;53.176;18.088;2024-02-14T06:14:12;1.02;85.13
79489;SHT31;68949;53.176;18.088;2024-02-14T06:16:39;1.02;85.10
79489;SHT31;68949;53.176;18.088;2024-02-14T06:19:06;1.02;85.00
79489;SHT31;68949;53.176;18.088;2024-02-14T06:21:33;1.01;84.97
79489;SHT31;68949;53.176;18.088;2024-02-14T06:24:00;0.99;85.03
79489;SHT31;68949;53.176;18.088;2024-02-14T06:26:27;0.99;85.13
79489;SHT31;68949;53.176;18.088;2024-02-14T06:28:54;0.99;85.10
79489;SHT31;68949;53.176;18.088;2024-02-14T06:31:21;1.00;85.17
79489;SHT31;68949;53.176;18.088;2024-02-14T06:33:49;1.03;85.20
79489;SHT31;68949;53.176;18.088;2024-02-14T06:36:15;1.05;85.20
79489;SHT31;68949;53.176;18.088;2024-02-14T06:38:42;1.07;85.15
79489;SHT31;68949;53.176;18.088;2024-02-14T06:41:09;1.13;85.20
79489;SHT31;68949;53.176;18.088;2024-02-14T06:43:36;1.22;85.28
79489;SHT31;68949;53.176;18.088;2024-02-14T06:46:05;1.30;85.21
79489;SHT31;68949;53.176;18.088;2024-02-14T06:48:32;1.35;85.14
79489;SHT31;68949;53.176;18.088;2024-02-14T06:50:59;1.38;85.23
79489;SHT31;68949;53.176;18.088;2024-02-14T06:53:26;1.45;85.21
79489;SHT31;68949;53.176;18.088;2024-02-14T06:55:52;1.51;85.19
79489;SHT31;68949;53.176;18.088;2024-02-14T06:58:19;1.56;85.20
79489;SHT31;68949;53.176;18.088;2024-02-14T07:00:46;1.63;85.22
79489;SHT31;68949;53.176;18.088;2024-02-14T07:03:12;1.70;85.20
79489;SHT31;68949;53.176;18.088;2024-02-14T07:05:40;1.75;85.14
79489;SHT31;68949;53.176;18.088;2024-02-14T07:08:08;1.83;85.11
79489;SHT31;68949;53.176;18.088;2024-02-14T07:10:34;1.88;85.06
79489;SHT31;68949;53.176;18.088;2024-02-14T07:13:01;1.94;85.00
79489;SHT31;68949;53.176;18.088;2024-02-14T07:15:29;2.00;84.99
79489;SHT31;68949;53.176;18.088;2024-02-14T07:17:56;2.08;84.86
79489;SHT31;68949;53.176;18.088;2024-02-14T07:20:24;2.15;84.76
79489;SHT31;68949;53.176;18.088;2024-02-14T07:22:53;2.24;84.67
79489;SHT31;68949;53.176;18.088;2024-02-14T07:25:22;2.30;84.59
79489;SHT31;68949;53.176;18.088;2024-02-14T07:27:49;2.38;84.59
79489;SHT31;68949;53.176;18.088;2024-02-14T07:30:16;2.45;84.51
79489;SHT31;68949;53.176;18.088;2024-02-14T07:32:46;2.50;84.44
79489;SHT31;68949;53.176;18.088;2024-02-14T07:35:13;2.54;84.55
79489;SHT31;68949;53.176;18.088;2024-02-14T07:37:39;2.60;84.56
79489;SHT31;68949;53.176;18.088;2024-02-14T07:40:09;2.69;84.52
79489;SHT31;68949;53.176;18.088;2024-02-14T07:42:36;2.78;84.33
79489;SHT31;68949;53.176;18.088;2024-02-14T07:45:03;2.84;84.26
79489;SHT31;68949;53.176;18.088;2024-02-14T07:47:31;2.89;84.21
79489;SHT31;68949;53.176;18.088;2024-02-14T07:49:57;2.94;84.18
79489;SHT31;68949;53.176;18.088;2024-02-14T07:52:24;2.99;84.20
79489;SHT31;68949;53.176;18.088;2024-02-14T07:54:52;3.04;84.10
79489;SHT31;68949;53.176;18.088;2024-02-14T07:57:22;3.06;84.00
79489;SHT31;68949;53.176;18.088;2024-02-14T07:59:50;3.11;83.98
79489;SHT31;68949;53.176;18.088;2024-02-14T08:02:18;3.19;83.94
79489;SHT31;68949;53.176;18.088;2024-02-14T08:04:46;3.26;83.85
79489;SHT31;68949;53.176;18.088;2024-02-14T08:07:13;3.29;83.92
79489;SHT31;68949;53.176;18.088;2024-02-14T08:09:39;3.37;83.84
79489;SHT31;68949;53.176;18.088;2024-02-14T08:12:06;3.42;83.81
79489;SHT31;68949;53.176;18.088;2024-02-14T08:14:33;3.43;83.76
79489;SHT31;68949;53.176;18.088;2024-02-14T08:17:00;3.48;83.77
79489;SHT31;68949;53.176;18.088;2024-02-14T08:19:26;3.52;83.70
79489;SHT31;68949;53.176;18.088;2024-02-14T08:21:53;3.59;83.80
79489;SHT31;68949;53.176;18.088;2024-02-14T08:24:27;3.71;83.77
79489;SHT31;68949;53.176;18.088;2024-02-14T08:26:54;3.83;83.70
79489;SHT31;68949;53.176;18.088;2024-02-14T08:29:21;3.94;83.69
79489;SHT31;68949;53.176;18.088;2024-02-14T08:31:48;4.00;83.53
79489;SHT31;68949;53.176;18.088;2024-02-14T08:34:15;4.03;83.41
79489;SHT31;68949;53.176;18.088;2024-02-14T08:36:43;4.04;83.46
79489;SHT31;68949;53.176;18.088;2024-02-14T08:39:10;4.09;83.51
79489;SHT31;68949;53.176;18.088;2024-02-14T08:41:37;4.14;83.53
79489;SHT31;68949;53.176;18.088;2024-02-14T08:44:04;4.19;83.48
79489;SHT31;68949;53.176;18.088;2024-02-14T08:46:31;4.22;83.50
79489;SHT31;68949;53.176;18.088;2024-02-14T08:49:01;4.24;83.42
79489;SHT31;68949;53.176;18.088;2024-02-14T08:51:31;4.24;83.47
79489;SHT31;68949;53.176;18.088;2024-02-14T08:53:57;4.33;83.60
79489;SHT31;68949;53.176;18.088;2024-02-14T08:56:25;4.43;83.59
79489;SHT31;68949;53.176;18.088;2024-02-14T08:58:52;4.56;83.52
79489;SHT31;68949;53.176;18.088;2024-02-14T09:01:19;4.71;83.37
79489;SHT31;68949;53.176;18.088;2024-02-14T09:03:48;4.86;83.27
79489;SHT31;68949;53.176;18.088;2024-02-14T09:06:15;4.97;83.10
79489;SHT31;68949;53.176;18.088;2024-02-14T09:08:44;5.06;83.01
79489;SHT31;68949;53.176;18.088;2024-02-14T09:11:11;5.12;82.86
79489;SHT31;68949;53.176;18.088;2024-02-14T09:13:38;5.14;82.91
79489;SHT31;68949;53.176;18.088;2024-02-14T09:16:10;5.20;82.86
79489;SHT31;68949;53.176;18.088;2024-02-14T09:18:37;5.27;82.67
79489;SHT31;68949;53.176;18.088;2024-02-14T09:21:04;5.38;82.75
79489;SHT31;68949;53.176;18.088;2024-02-14T09:23:31;5.44;82.54
79489;SHT31;68949;53.176;18.088;2024-02-14T09:25:58;5.53;82.53
79489;SHT31;68949;53.176;18.088;2024-02-14T09:28:25;5.60;82.56
79489;SHT31;68949;53.176;18.088;2024-02-14T09:30:52;5.68;82.44
79489;SHT31;68949;53.176;18.088;2024-02-14T09:33:18;5.79;82.20
79489;SHT31;68949;53.176;18.088;2024-02-14T09:35:46;5.96;82.24
79489;SHT31;68949;53.176;18.088;2024-02-14T09:38:14;6.14;81.98
79489;SHT31;68949;53.176;18.088;2024-02-14T09:40:41;6.23;81.53
79489;SHT31;68949;53.176;18.088;2024-02-14T09:43:12;6.30;81.24
79489;SHT31;68949;53.176;18.088;2024-02-14T09:45:49;6.36;81.10
79489;SHT31;68949;53.176;18.088;2024-02-14T09:48:17;6.43;80.95
79489;SHT31;68949;53.176;18.088;2024-02-14T09:50:46;6.52;80.96
79489;SHT31;68949;53.176;18.088;2024-02-14T09:53:16;6.63;80.93
79489;SHT31;68949;53.176;18.088;2024-02-14T09:55:45;6.72;80.51
79489;SHT31;68949;53.176;18.088;2024-02-14T09:58:12;6.78;80.12
79489;SHT31;68949;53.176;18.088;2024-02-14T10:00:40;6.84;80.06
79489;SHT31;68949;53.176;18.088;2024-02-14T10:03:07;6.86;79.91
79489;SHT31;68949;53.176;18.088;2024-02-14T10:05:35;6.85;79.58
79489;SHT31;68949;53.176;18.088;2024-02-14T10:08:01;6.84;79.62
79489;SHT31;68949;53.176;18.088;2024-02-14T10:10:31;6.86;79.39
79489;SHT31;68949;53.176;18.088;2024-02-14T10:13:03;6.95;79.56
79489;SHT31;68949;53.176;18.088;2024-02-14T10:15:32;7.04;79.32
79489;SHT31;68949;53.176;18.088;2024-02-14T10:17:59;7.18;79.00
79489;SHT31;68949;53.176;18.088;2024-02-14T10:20:27;7.28;78.98
79489;SHT31;68949;53.176;18.088;2024-02-14T10:23:02;7.34;78.57
79489;SHT31;68949;53.176;18.088;2024-02-14T10:25:30;7.37;77.78
79489;SHT31;68949;53.176;18.088;2024-02-14T10:28:03;7.39;77.64
79489;SHT31;68949;53.176;18.088;2024-02-14T10:30:35;7.41;77.38
79489;SHT31;68949;53.176;18.088;2024-02-14T10:33:07;7.42;77.23
79489;SHT31;68949;53.176;18.088;2024-02-14T10:35:34;7.47;77.22
79489;SHT31;68949;53.176;18.088;2024-02-14T10:38:03;7.55;77.05
79489;SHT31;68949;53.176;18.088;2024-02-14T10:40:32;7.63;76.73
79489;SHT31;68949;53.176;18.088;2024-02-14T10:43:00;7.69;76.86
79489;SHT31;68949;53.176;18.088;2024-02-14T10:45:28;7.71;76.44
79489;SHT31;68949;53.176;18.088;2024-02-14T10:47:56;7.70;76.30
79489;SHT31;68949;53.176;18.088;2024-02-14T10:50:26;7.65;76.49
79489;SHT31;68949;53.176;18.088;2024-02-14T10:52:57;7.65;76.59
79489;SHT31;68949;53.176;18.088;2024-02-14T10:55:27;7.65;76.10
79489;SHT31;68949;53.176;18.088;2024-02-14T10:57:57;7.64;75.78
79489;SHT31;68949;53.176;18.088;2024-02-14T11:00:25;7.66;75.84
79489;SHT31;68949;53.176;18.088;2024-02-14T11:02:53;7.66;75.61
79489;SHT31;68949;53.176;18.088;2024-02-14T11:05:20;7.67;75.49
79489;SHT31;68949;53.176;18.088;2024-02-14T11:07:51;7.66;75.26
79489;SHT31;68949;53.176;18.088;2024-02-14T11:10:20;7.68;75.41
79489;SHT31;68949;53.176;18.088;2024-02-14T11:12:50;7.73;75.52
79489;SHT31;68949;53.176;18.088;2024-02-14T11:17:47;7.78;75.28
79489;SHT31;68949;53.176;18.088;2024-02-14T11:20:21;7.84;75.70
79489;SHT31;68949;53.176;18.088;2024-02-14T11:23:02;7.92;75.72
79489;SHT31;68949;53.176;18.088;2024-02-14T11:25:32;8.00;75.37
79489;SHT31;68949;53.176;18.088;2024-02-14T11:28:13;8.03;74.85
79489;SHT31;68949;53.176;18.088;2024-02-14T11:30:46;8.07;75.14
79489;SHT31;68949;53.176;18.088;2024-02-14T11:33:15;8.11;74.97
79489;SHT31;68949;53.176;18.088;2024-02-14T11:35:49;8.10;74.84
79489;SHT31;68949;53.176;18.088;2024-02-14T11:38:20;8.13;75.20
79489;SHT31;68949;53.176;18.088;2024-02-14T11:40:48;8.18;75.03
79489;SHT31;68949;53.176;18.088;2024-02-14T11:43:16;8.20;74.90
79489;SHT31;68949;53.176;18.088;2024-02-14T11:45:45;8.23;74.50
79489;SHT31;68949;53.176;18.088;2024-02-14T11:48:18;8.25;74.37
79489;SHT31;68949;53.176;18.088;2024-02-14T11:50:46;8.28;74.15
79489;SHT31;68949;53.176;18.088;2024-02-14T11:53:14;8.26;73.31
79489;SHT31;68949;53.176;18.088;2024-02-14T11:55:45;8.24;73.52
79489;SHT31;68949;53.176;18.088;2024-02-14T11:58:15;8.22;73.31
79489;SHT31;68949;53.176;18.088;2024-02-14T12:00:44;8.21;73.36
79489;SHT31;68949;53.176;18.088;2024-02-14T12:03:15;8.18;72.75
79489;SHT31;68949;53.176;18.088;2024-02-14T12:05:52;8.16;73.31
79489;SHT31;68949;53.176;18.088;2024-02-14T12:08:20;8.20;73.56
79489;SHT31;68949;53.176;18.088;2024-02-14T12:10:48;8.26;73.52
79489;SHT31;68949;53.176;18.088;2024-02-14T12:13:16;8.32;72.67
79489;SHT31;68949;53.176;18.088;2024-02-14T12:15:50;8.37;72.73
79489;SHT31;68949;53.176;18.088;2024-02-14T12:18:18;8.44;73.10
79489;SHT31;68949;53.176;18.088;2024-02-14T12:20:47;8.49;73.02
79489;SHT31;68949;53.176;18.088;2024-02-14T12:23:17;8.50;72.62
79489;SHT31;68949;53.176;18.088;2024-02-14T12:25:46;8.51;73.02
79489;SHT31;68949;53.176;18.088;2024-02-14T12:28:16;8.49;72.39
79489;SHT31;68949;53.176;18.088;2024-02-14T12:30:45;8.48;72.97
79489;SHT31;68949;53.176;18.088;2024-02-14T12:33:16;8.47;72.71
79489;SHT31;68949;53.176;18.088;2024-02-14T12:35:46;8.43;71.49
79489;SHT31;68949;53.176;18.088;2024-02-14T12:38:15;8.36;71.15
79489;SHT31;68949;53.176;18.088;2024-02-14T12:40:45;8.33;72.10
79489;SHT31;68949;53.176;18.088;2024-02-14T12:43:13;8.40;72.91
79489;SHT31;68949;53.176;18.088;2024-02-14T12:45:42;8.50;73.28
79489;SHT31;68949;53.176;18.088;2024-02-14T12:48:11;8.57;73.01
79489;SHT31;68949;53.176;18.088;2024-02-14T12:50:40;8.62;72.67
79489;SHT31;68949;53.176;18.088;2024-02-14T12:53:13;8.65;72.38
79489;SHT31;68949;53.176;18.088;2024-02-14T12:55:40;8.66;72.25
79489;SHT31;68949;53.176;18.088;2024-02-14T12:58:07;8.66;71.94
79489;SHT31;68949;53.176;18.088;2024-02-14T13:00:34;8.66;72.00
79489;SHT31;68949;53.176;18.088;2024-02-14T13:03:01;8.67;72.23
79489;SHT31;68949;53.176;18.088;2024-02-14T13:05:27;8.68;72.53
79489;SHT31;68949;53.176;18.088;2024-02-14T13:07:54;8.67;72.42
79489;SHT31;68949;53.176;18.088;2024-02-14T13:10:21;8.63;72.18
79489;SHT31;68949;53.176;18.088;2024-02-14T13:12:48;8.59;72.17
79489;SHT31;68949;53.176;18.088;2024-02-14T13:15:16;8.56;72.15
79489;SHT31;68949;53.176;18.088;2024-02-14T13:17:42;8.55;72.31
79489;SHT31;68949;53.176;18.088;2024-02-14T13:20:09;8.53;72.14
79489;SHT31;68949;53.176;18.088;2024-02-14T13:22:37;8.57;71.98
79489;SHT31;68949;53.176;18.088;2024-02-14T13:25:04;8.58;71.43
79489;SHT31;68949;53.176;18.088;2024-02-14T13:27:31;8.59;70.98
79489;SHT31;68949;53.176;18.088;2024-02-14T13:29:58;8.55;71.05
79489;SHT31;68949;53.176;18.088;2024-02-14T13:32:24;8.53;70.99
79489;SHT31;68949;53.176;18.088;2024-02-14T13:34:51;8.51;70.98
79489;SHT31;68949;53.176;18.088;2024-02-14T13:37:18;8.48;71.37
79489;SHT31;68949;53.176;18.088;2024-02-14T13:39:45;8.43;71.49
79489;SHT31;68949;53.176;18.088;2024-02-14T13:42:12;8.40;71.51
79489;SHT31;68949;53.176;18.088;2024-02-14T13:44:39;8.34;71.45
79489;SHT31;68949;53.176;18.088;2024-02-14T13:47:06;8.29;71.40
79489;SHT31;68949;53.176;18.088;2024-02-14T13:49:32;8.24;71.46
79489;SHT31;68949;53.176;18.088;2024-02-14T13:52:00;8.20;71.56
79489;SHT31;68949;53.176;18.088;2024-02-14T13:54:26;8.16;71.57
79489;SHT31;68949;53.176;18.088;2024-02-14T13:56:53;8.14;71.84
79489;SHT31;68949;53.176;18.088;2024-02-14T13:59:21;8.17;71.91
79489;SHT31;68949;53.176;18.088;2024-02-14T14:01:48;8.20;71.70
79489;SHT31;68949;53.176;18.088;2024-02-14T14:04:15;8.16;71.81
79489;SHT31;68949;53.176;18.088;2024-02-14T14:06:42;8.15;72.33
79489;SHT31;68949;53.176;18.088;2024-02-14T14:09:09;8.14;72.39
79489;SHT31;68949;53.176;18.088;2024-02-14T14:11:37;8.09;72.52
79489;SHT31;68949;53.176;18.088;2024-02-14T14:14:05;8.03;72.59
79489;SHT31;68949;53.176;18.088;2024-02-14T14:16:34;7.98;72.98
79489;SHT31;68949;53.176;18.088;2024-02-14T14:19:01;7.93;73.13
79489;SHT31;68949;53.176;18.088;2024-02-14T14:21:28;7.88;73.28
79489;SHT31;68949;53.176;18.088;2024-02-14T14:23:55;7.84;73.44
79489;SHT31;68949;53.176;18.088;2024-02-14T14:26:21;7.82;73.33
79489;SHT31;68949;53.176;18.088;2024-02-14T14:28:48;7.78;73.35
79489;SHT31;68949;53.176;18.088;2024-02-14T14:31:15;7.74;73.47
79489;SHT31;68949;53.176;18.088;2024-02-14T14:33:41;7.71;73.78
79489;SHT31;68949;53.176;18.088;2024-02-14T14:36:09;7.66;73.76
79489;SHT31;68949;53.176;18.088;2024-02-14T14:38:35;7.61;73.81
79489;SHT31;68949;53.176;18.088;2024-02-14T14:41:02;7.58;74.24
79489;SHT31;68949;53.176;18.088;2024-02-14T14:43:29;7.56;74.70
79489;SHT31;68949;53.176;18.088;2024-02-14T14:45:56;7.56;74.80
79489;SHT31;68949;53.176;18.088;2024-02-14T14:48:23;7.55;75.05
79489;SHT31;68949;53.176;18.088;2024-02-14T14:50:50;7.55;75.08
79489;SHT31;68949;53.176;18.088;2024-02-14T14:53:17;7.53;75.05
79489;SHT31;68949;53.176;18.088;2024-02-14T14:55:53;7.48;75.38
79489;SHT31;68949;53.176;18.088;2024-02-14T14:58:22;7.48;75.64
79489;SHT31;68949;53.176;18.088;2024-02-14T15:00:53;7.46;75.71
79489;SHT31;68949;53.176;18.088;2024-02-14T15:03:26;7.45;75.83
79489;SHT31;68949;53.176;18.088;2024-02-14T15:05:54;7.44;75.87
79489;SHT31;68949;53.176;18.088;2024-02-14T15:08:21;7.41;75.82
79489;SHT31;68949;53.176;18.088;2024-02-14T15:10:52;7.38;76.23
79489;SHT31;68949;53.176;18.088;2024-02-14T15:13:19;7.35;76.26
79489;SHT31;68949;53.176;18.088;2024-02-14T15:15:46;7.30;76.33
79489;SHT31;68949;53.176;18.088;2024-02-14T15:18:12;7.26;76.59
79489;SHT31;68949;53.176;18.088;2024-02-14T15:20:39;7.20;76.78
79489;SHT31;68949;53.176;18.088;2024-02-14T15:23:06;7.15;76.99
79489;SHT31;68949;53.176;18.088;2024-02-14T15:25:34;7.12;77.25
79489;SHT31;68949;53.176;18.088;2024-02-14T15:28:07;7.09;77.46
79489;SHT31;68949;53.176;18.088;2024-02-14T15:30:48;7.04;77.72
79489;SHT31;68949;53.176;18.088;2024-02-14T15:33:34;6.96;77.82
79489;SHT31;68949;53.176;18.088;2024-02-14T15:36:00;6.88;78.01
79489;SHT31;68949;53.176;18.088;2024-02-14T15:38:27;6.83;78.32
79489;SHT31;68949;53.176;18.088;2024-02-14T15:40:54;6.80;78.40
79489;SHT31;68949;53.176;18.088;2024-02-14T15:43:27;6.76;78.55
79489;SHT31;68949;53.176;18.088;2024-02-14T15:45:55;6.73;78.74
79489;SHT31;68949;53.176;18.088;2024-02-14T15:48:22;6.69;78.92
79489;SHT31;68949;53.176;18.088;2024-02-14T15:50:50;6.66;79.13
79489;SHT31;68949;53.176;18.088;2024-02-14T15:53:17;6.66;79.29
79489;SHT31;68949;53.176;18.088;2024-02-14T15:55:45;6.66;79.38
79489;SHT31;68949;53.176;18.088;2024-02-14T15:58:15;6.66;79.55
79489;SHT31;68949;53.176;18.088;2024-02-14T16:00:41;6.66;79.67
79489;SHT31;68949;53.176;18.088;2024-02-14T16:03:08;6.65;79.72
79489;SHT31;68949;53.176;18.088;2024-02-14T16:05:39;6.59;79.84
79489;SHT31;68949;53.176;18.088;2024-02-14T16:08:05;6.56;80.01
79489;SHT31;68949;53.176;18.088;2024-02-14T16:10:33;6.55;80.03
79489;SHT31;68949;53.176;18.088;2024-02-14T16:13:00;6.55;80.13
79489;SHT31;68949;53.176;18.088;2024-02-14T16:15:27;6.54;80.27
79489;SHT31;68949;53.176;18.088;2024-02-14T16:17:55;6.53;80.30
79489;SHT31;68949;53.176;18.088;2024-02-14T16:20:21;6.52;80.30
79489;SHT31;68949;53.176;18.088;2024-02-14T16:22:49;6.48;80.39
79489;SHT31;68949;53.176;18.088;2024-02-14T16:25:16;6.45;80.50
79489;SHT31;68949;53.176;18.088;2024-02-14T16:27:43;6.43;80.51
79489;SHT31;68949;53.176;18.088;2024-02-14T16:30:12;6.41;80.65
79489;SHT31;68949;53.176;18.088;2024-02-14T16:32:41;6.42;80.69
79489;SHT31;68949;53.176;18.088;2024-02-14T16:35:07;6.41;80.70
79489;SHT31;68949;53.176;18.088;2024-02-14T16:37:35;6.38;80.81
79489;SHT31;68949;53.176;18.088;2024-02-14T16:40:01;6.35;80.91
79489;SHT31;68949;53.176;18.088;2024-02-14T16:42:28;6.35;81.00
79489;SHT31;68949;53.176;18.088;2024-02-14T16:44:55;6.35;81.10
79489;SHT31;68949;53.176;18.088;2024-02-14T16:47:22;6.35;81.10
79489;SHT31;68949;53.176;18.088;2024-02-14T16:49:49;6.36;81.13
79489;SHT31;68949;53.176;18.088;2024-02-14T16:52:15;6.35;81.18
79489;SHT31;68949;53.176;18.088;2024-02-14T16:54:42;6.33;81.26
79489;SHT31;68949;53.176;18.088;2024-02-14T16:57:09;6.33;81.32
79489;SHT31;68949;53.176;18.088;2024-02-14T16:59:38;6.34;81.35
79489;SHT31;68949;53.176;18.088;2024-02-14T17:02:07;6.35;81.40
79489;SHT31;68949;53.176;18.088;2024-02-14T17:04:34;6.36;81.40
79489;SHT31;68949;53.176;18.088;2024-02-14T17:07:02;6.35;81.49
79489;SHT31;68949;53.176;18.088;2024-02-14T17:09:30;6.33;81.51
79489;SHT31;68949;53.176;18.088;2024-02-14T17:11:57;6.32;81.56
79489;SHT31;68949;53.176;18.088;2024-02-14T17:14:25;6.30;81.66
79489;SHT31;68949;53.176;18.088;2024-02-14T17:16:52;6.29;81.79
79489;SHT31;68949;53.176;18.088;2024-02-14T17:19:24;6.29;81.84
79489;SHT31;68949;53.176;18.088;2024-02-14T17:21:51;6.26;81.92
79489;SHT31;68949;53.176;18.088;2024-02-14T17:24:18;6.26;81.94
79489;SHT31;68949;53.176;18.088;2024-02-14T17:26:45;6.26;81.99
79489;SHT31;68949;53.176;18.088;2024-02-14T17:29:12;6.27;82.02
79489;SHT31;68949;53.176;18.088;2024-02-14T17:31:39;6.28;82.08
79489;SHT31;68949;53.176;18.088;2024-02-14T17:34:07;6.28;82.09
79489;SHT31;68949;53.176;18.088;2024-02-14T17:36:35;6.25;82.12
79489;SHT31;68949;53.176;18.088;2024-02-14T17:39:02;6.24;82.18
79489;SHT31;68949;53.176;18.088;2024-02-14T17:41:31;6.24;82.21
79489;SHT31;68949;53.176;18.088;2024-02-14T17:44:01;6.25;82.22
79489;SHT31;68949;53.176;18.088;2024-02-14T17:46:29;6.26;82.27
79489;SHT31;68949;53.176;18.088;2024-02-14T17:48:56;6.26;82.29
79489;SHT31;68949;53.176;18.088;2024-02-14T17:51:24;6.24;82.30
79489;SHT31;68949;53.176;18.088;2024-02-14T17:53:54;6.24;82.36
79489;SHT31;68949;53.176;18.088;2024-02-14T17:56:21;6.24;82.40
79489;SHT31;68949;53.176;18.088;2024-02-14T17:58:48;6.24;82.41
79489;SHT31;68949;53.176;18.088;2024-02-14T18:01:15;6.27;82.40
79489;SHT31;68949;53.176;18.088;2024-02-14T18:03:42;6.26;82.42
79489;SHT31;68949;53.176;18.088;2024-02-14T18:06:10;6.26;82.43
79489;SHT31;68949;53.176;18.088;2024-02-14T18:08:37;6.25;82.50
79489;SHT31;68949;53.176;18.088;2024-02-14T18:11:03;6.24;82.52
79489;SHT31;68949;53.176;18.088;2024-02-14T18:13:31;6.24;82.50
79489;SHT31;68949;53.176;18.088;2024-02-14T18:15:58;6.24;82.57
79489;SHT31;68949;53.176;18.088;2024-02-14T18:18:25;6.23;82.60
79489;SHT31;68949;53.176;18.088;2024-02-14T18:20:52;6.23;82.58
79489;SHT31;68949;53.176;18.088;2024-02-14T18:23:19;6.24;82.60
79489;SHT31;68949;53.176;18.088;2024-02-14T18:25:46;6.23;82.59
79489;SHT31;68949;53.176;18.088;2024-02-14T18:28:13;6.23;82.58
79489;SHT31;68949;53.176;18.088;2024-02-14T18:30:39;6.25;82.59
79489;SHT31;68949;53.176;18.088;2024-02-14T18:33:06;6.24;82.61
79489;SHT31;68949;53.176;18.088;2024-02-14T18:35:40;6.22;82.61
79489;SHT31;68949;53.176;18.088;2024-02-14T18:38:07;6.20;82.71
79489;SHT31;68949;53.176;18.088;2024-02-14T18:40:37;6.20;82.78
79489;SHT31;68949;53.176;18.088;2024-02-14T18:43:05;6.23;82.78
79489;SHT31;68949;53.176;18.088;2024-02-14T18:45:32;6.24;82.80
79489;SHT31;68949;53.176;18.088;2024-02-14T18:47:59;6.22;82.84
79489;SHT31;68949;53.176;18.088;2024-02-14T18:50:26;6.23;82.84
79489;SHT31;68949;53.176;18.088;2024-02-14T18:52:52;6.23;82.86
79489;SHT31;68949;53.176;18.088;2024-02-14T18:55:20;6.22;82.91
79489;SHT31;68949;53.176;18.088;2024-02-14T18:57:47;6.23;82.93
79489;SHT31;68949;53.176;18.088;2024-02-14T19:00:15;6.24;82.97
79489;SHT31;68949;53.176;18.088;2024-02-14T19:02:42;6.23;82.96
79489;SHT31;68949;53.176;18.088;2024-02-14T19:05:10;6.22;83.00
79489;SHT31;68949;53.176;18.088;2024-02-14T19:07:37;6.23;83.00
79489;SHT31;68949;53.176;18.088;2024-02-14T19:10:05;6.22;83.01
79489;SHT31;68949;53.176;18.088;2024-02-14T19:12:32;6.22;83.08
79489;SHT31;68949;53.176;18.088;2024-02-14T19:15:00;6.24;83.10
79489;SHT31;68949;53.176;18.088;2024-02-14T19:17:34;6.24;83.10
79489;SHT31;68949;53.176;18.088;2024-02-14T19:20:02;6.24;83.11
79489;SHT31;68949;53.176;18.088;2024-02-14T19:22:34;6.22;83.10
79489;SHT31;68949;53.176;18.088;2024-02-14T19:25:01;6.22;83.11
79489;SHT31;68949;53.176;18.088;2024-02-14T19:27:28;6.23;83.10
79489;SHT31;68949;53.176;18.088;2024-02-14T19:29:55;6.24;83.10
79489;SHT31;68949;53.176;18.088;2024-02-14T19:32:23;6.23;83.08
79489;SHT31;68949;53.176;18.088;2024-02-14T19:34:50;6.22;83.10
79489;SHT31;68949;53.176;18.088;2024-02-14T19:37:17;6.23;83.11
79489;SHT31;68949;53.176;18.088;2024-02-14T19:39:44;6.24;83.11
79489;SHT31;68949;53.176;18.088;2024-02-14T19:42:10;6.27;83.09
79489;SHT31;68949;53.176;18.088;2024-02-14T19:44:37;6.30;83.04
79489;SHT31;68949;53.176;18.088;2024-02-14T19:47:04;6.30;83.04
79489;SHT31;68949;53.176;18.088;2024-02-14T19:49:31;6.30;83.01
79489;SHT31;68949;53.176;18.088;2024-02-14T19:51:58;6.30;83.03
79489;SHT31;68949;53.176;18.088;2024-02-14T19:54:24;6.31;83.00
79489;SHT31;68949;53.176;18.088;2024-02-14T19:56:51;6.32;82.98
79489;SHT31;68949;53.176;18.088;2024-02-14T19:59:20;6.30;82.93
79489;SHT31;68949;53.176;18.088;2024-02-14T20:01:48;6.29;82.97
79489;SHT31;68949;53.176;18.088;2024-02-14T20:04:18;6.29;83.00
79489;SHT31;68949;53.176;18.088;2024-02-14T20:06:45;6.27;82.95
79489;SHT31;68949;53.176;18.088;2024-02-14T20:09:12;6.28;82.93
79489;SHT31;68949;53.176;18.088;2024-02-14T20:11:40;6.29;82.93
79489;SHT31;68949;53.176;18.088;2024-02-14T20:14:10;6.31;82.92
79489;SHT31;68949;53.176;18.088;2024-02-14T20:16:36;6.31;82.90
79489;SHT31;68949;53.176;18.088;2024-02-14T20:19:03;6.31;82.84
79489;SHT31;68949;53.176;18.088;2024-02-14T20:21:30;6.28;82.85
79489;SHT31;68949;53.176;18.088;2024-02-14T20:23:58;6.28;82.82
79489;SHT31;68949;53.176;18.088;2024-02-14T20:26:32;6.28;82.84
79489;SHT31;68949;53.176;18.088;2024-02-14T20:29:00;6.30;82.80
79489;SHT31;68949;53.176;18.088;2024-02-14T20:31:27;6.31;82.79
79489;SHT31;68949;53.176;18.088;2024-02-14T20:33:57;6.33;82.80
79489;SHT31;68949;53.176;18.088;2024-02-14T20:36:25;6.35;82.71
79489;SHT31;68949;53.176;18.088;2024-02-14T20:38:52;6.34;82.70
79489;SHT31;68949;53.176;18.088;2024-02-14T20:41:21;6.33;82.70
79489;SHT31;68949;53.176;18.088;2024-02-14T20:43:48;6.35;82.76
79489;SHT31;68949;53.176;18.088;2024-02-14T20:46:15;6.38;82.70
79489;SHT31;68949;53.176;18.088;2024-02-14T20:48:44;6.39;82.65
79489;SHT31;68949;53.176;18.088;2024-02-14T20:51:11;6.37;82.63
79489;SHT31;68949;53.176;18.088;2024-02-14T20:53:38;6.36;82.70
79489;SHT31;68949;53.176;18.088;2024-02-14T20:56:05;6.37;82.69
79489;SHT31;68949;53.176;18.088;2024-02-14T20:58:32;6.41;82.69
79489;SHT31;68949;53.176;18.088;2024-02-14T21:00:59;6.44;82.61
79489;SHT31;68949;53.176;18.088;2024-02-14T21:03:26;6.45;82.56
79489;SHT31;68949;53.176;18.088;2024-02-14T21:05:53;6.47;82.56
79489;SHT31;68949;53.176;18.088;2024-02-14T21:08:19;6.48;82.52
79489;SHT31;68949;53.176;18.088;2024-02-14T21:10:46;6.48;82.50
79489;SHT31;68949;53.176;18.088;2024-02-14T21:13:13;6.49;82.54
79489;SHT31;68949;53.176;18.088;2024-02-14T21:15:39;6.51;82.52